Time;durP1;ratioP1;P1;durP2;ratioP2;P2;SDS_P1;SDS_P2;PMS_P1;PMS_P2;Temp;Humidity;BMP_temperature;BMP_pressure;BME280_temperature;BME280_humidity;BME280_pressure;Samples;Min_cycle;Max_cycle;Signal;HPM_P1;HPM_P2
2021/04/12 00:00:31;;;;;;;10.23;4.65;;;;;;;7.93;62.95;99895.88;4349615;32;34156;-93
2021/04/12 00:03:09;;;;;;;10.63;5.00;;;;;;;8.63;60.44;99900.75;4338979;32;34084;-92
2021/04/12 00:05:47;;;;;;;15.27;5.87;;;;;;;8.57;60.92;99890.69;4349631;32;32702;-93
2021/04/12 00:08:40;;;;;;;10.53;5.67;;;;;;;8.45;61.99;99890.19;4325937;33;34213;-92
2021/04/12 00:11:40;;;;;;;7.82;4.87;;;;;;;9.07;61.11;99882.47;4347825;32;33093;-92
2021/04/12 00:14:25;;;;;;;11.50;5.60;;;;;;;9.25;60.45;99884.91;4337278;33;35192;-92
2021/04/12 00:17:07;;;;;;;11.40;6.82;;;;;;;9.62;59.57;99880.69;4315623;33;32530;-92
2021/04/12 00:19:53;;;;;;;8.68;4.68;;;;;;;9.29;60.89;99881.69;4343162;33;33547;-93
2021/04/12 00:22:41;;;;;;;7.37;4.87;;;;;;;9.54;60.79;99876.19;4343636;33;35250;-94
2021/04/12 00:25:22;;;;;;;12.68;5.87;;;;;;;9.72;60.09;99876.72;4320843;33;33660;-92
2021/04/12 00:28:29;;;;;;;11.85;5.90;;;;;;;9.56;60.96;99876.84;4330785;33;34480;-92
2021/04/12 00:31:12;;;;;;;11.50;5.85;;;;;;;8.93;62.83;99862.47;4342996;33;33635;-92
2021/04/12 00:34:38;;;;;;;12.52;5.68;;;;;;;10.12;59.50;99851.47;4331531;33;33059;-92
2021/04/12 00:37:26;;;;;;;15.60;6.10;;;;;;;9.96;59.71;99847.87;4304484;33;33400;-93
2021/04/12 00:40:08;;;;;;;13.23;6.28;;;;;;;9.81;59.81;99853.22;4308487;33;34233;-92
2021/04/12 00:43:01;;;;;;;11.75;6.60;;;;;;;10.17;58.97;99851.78;4308055;33;33985;-92
2021/04/12 00:45:48;;;;;;;15.00;6.00;;;;;;;9.93;59.26;99859.06;4317950;33;33825;-93
2021/04/12 00:48:56;;;;;;;10.10;5.35;;;;;;;10.21;58.36;99855.81;4329709;33;32026;-93
2021/04/12 00:52:06;;;;;;;9.18;5.47;;;;;;;10.32;58.42;99851.81;4319582;33;33671;-93
2021/04/12 00:54:54;;;;;;;15.00;6.78;;;;;;;10.19;58.58;99849.72;4330758;33;32790;-92
2021/04/12 00:57:35;;;;;;;11.27;5.78;;;;;;;10.15;58.78;99853.81;4330576;33;33782;-93
2021/04/12 01:00:19;;;;;;;10.05;6.32;;;;;;;10.07;59.12;99847.47;4330373;33;34052;-93
2021/04/12 01:02:59;;;;;;;14.23;5.57;;;;;;;9.99;59.08;99850.22;4307482;33;34590;-93
2021/04/12 01:05:41;;;;;;;10.95;6.10;;;;;;;10.40;57.41;99854.47;4319210;33;33612;-92
2021/04/12 01:08:55;;;;;;;11.88;5.43;;;;;;;10.32;56.92;99844.53;4330604;33;33596;-92
2021/04/12 01:12:17;;;;;;;8.50;5.47;;;;;;;10.04;57.16;99852.38;4336040;32;34920;-93
2021/04/12 01:15:19;;;;;;;10.40;5.95;;;;;;;9.04;59.79;99850.47;4321676;33;33700;-93
2021/04/12 01:17:58;;;;;;;9.43;5.30;;;;;;;9.01;59.53;99843.56;4343234;33;33470;-91
2021/04/12 01:20:56;;;;;;;11.07;5.35;;;;;;;8.51;61.52;99845.56;4329513;33;32371;-91
2021/04/12 01:24:07;;;;;;;13.70;5.12;;;;;;;9.28;58.58;99844.97;4330888;33;34554;-94
2021/04/12 01:27:03;;;;;;;8.43;4.03;;;;;;;9.33;58.18;99842.56;4329851;33;34183;-91
2021/04/12 01:30:13;;;;;;;10.95;4.87;;;;;;;9.36;57.83;99844.91;4329944;33;35449;-94
2021/04/12 01:32:52;;;;;;;13.43;6.75;;;;;;;8.96;59.00;99849.47;4331578;33;33260;-94
2021/04/12 01:36:02;;;;;;;10.40;5.75;;;;;;;8.86;59.52;99839.91;4329119;33;34717;-92
2021/04/12 01:38:58;;;;;;;9.32;5.93;;;;;;;8.52;60.81;99833.78;4328802;33;34988;-94
2021/04/12 01:41:40;;;;;;;8.65;5.20;;;;;;;8.57;60.05;99820.63;4339583;33;32676;-94
2021/04/12 01:44:44;;;;;;;9.80;5.32;;;;;;;8.36;60.75;99831.09;4348000;32;32236;-92
2021/04/12 01:47:25;;;;;;;8.55;5.55;;;;;;;8.17;60.50;99832.28;4342490;33;35124;-91
2021/04/12 01:50:01;;;;;;;10.27;5.97;;;;;;;8.07;61.14;99832.47;4318879;33;35058;-91
2021/04/12 01:52:48;;;;;;;10.02;5.72;;;;;;;8.46;59.30;99827.22;4343282;33;33270;-93
2021/04/12 01:55:40;;;;;;;13.68;6.50;;;;;;;8.25;60.38;99833.13;4355941;32;33810;-91
2021/04/12 01:58:43;;;;;;;10.73;5.53;;;;;;;8.46;59.38;99826.41;4332674;33;35411;-91
2021/04/12 02:01:54;;;;;;;7.70;5.32;;;;;;;8.25;59.61;99825.03;4302376;33;34957;-93
2021/04/12 02:04:43;;;;;;;7.90;4.87;;;;;;;8.26;59.78;99832.13;4309263;33;34564;-93
2021/04/12 02:07:39;;;;;;;9.68;5.53;;;;;;;7.83;61.20;99826.09;4310391;33;34670;-92
2021/04/12 02:10:37;;;;;;;8.02;5.53;;;;;;;8.19;59.77;99820.34;4341079;33;34596;-91
2021/04/12 02:13:35;;;;;;;9.57;6.13;;;;;;;8.44;58.18;99828.41;4348490;32;33782;-93
2021/04/12 02:16:33;;;;;;;10.38;6.45;;;;;;;8.31;58.45;99824.34;4326680;33;34321;-91
2021/04/12 02:19:11;;;;;;;;;;;;;;;7.80;60.49;99815.66;4333808;33;32185;-93
2021/04/12 02:22:18;;;;;;;13.88;6.20;;;;;;;7.48;61.20;99822.66;4331480;32;34496;-91
2021/04/12 02:25:37;;;;;;;7.47;5.43;;;;;;;7.30;61.98;99821.97;4332739;33;34740;-94
2021/04/12 02:28:43;;;;;;;11.05;5.95;;;;;;;6.99;62.51;99807.25;4290392;33;33873;-94
2021/04/12 02:31:37;;;;;;;;;;;;;;;7.43;60.91;99798.94;4300386;33;32918;-92
2021/04/12 02:34:26;;;;;;;9.68;5.45;;;;;;;7.57;59.92;99796.63;4335854;33;33825;-93
2021/04/12 02:37:19;;;;;;;9.18;5.90;;;;;;;7.68;59.25;99807.06;4299358;33;35025;-92
2021/04/12 02:39:57;;;;;;;9.93;5.20;;;;;;;7.47;59.89;99804.88;4311215;33;33855;-92
2021/04/12 02:43:15;;;;;;;8.10;5.40;;;;;;;7.29;60.35;99809.50;4206264;33;35391;-92
2021/04/12 02:46:33;;;;;;;10.55;5.97;;;;;;;7.27;60.05;99803.47;4293725;33;34628;-92
2021/04/12 02:49:08;;;;;;;13.23;6.72;;;;;;;6.87;61.14;99813.91;4291470;33;34197;-92
2021/04/12 02:52:37;;;;;;;10.40;6.07;;;;;;;6.23;64.08;99811.56;4293399;33;34667;-91
2021/04/12 02:55:43;;;;;;;14.40;6.22;;;;;;;5.69;66.02;99803.59;4250328;33;34751;-93
2021/04/12 02:58:46;;;;;;;9.18;5.70;;;;;;;5.83;66.13;99802.19;4255724;33;34379;-93
2021/04/12 03:01:57;;;;;;;11.27;6.70;;;;;;;6.48;63.54;99796.47;4290839;33;34599;-93
2021/04/12 03:04:51;;;;;;;10.20;6.35;;;;;;;6.55;63.11;99799.34;4322518;33;33382;-90
2021/04/12 03:07:39;;;;;;;14.68;6.72;;;;;;;6.71;62.24;99783.28;4305011;33;33936;-92
2021/04/12 03:10:12;;;;;;;10.98;6.57;;;;;;;6.50;62.77;99797.13;4297629;33;34289;-91
2021/04/12 03:12:45;;;;;;;13.13;6.90;;;;;;;6.07;63.87;99795.34;4331786;32;33708;-93
2021/04/12 03:15:31;;;;;;;12.85;6.45;;;;;;;6.67;62.14;99795.34;4324827;33;33434;-91
2021/04/12 03:18:35;;;;;;;9.18;6.05;;;;;;;6.17;63.76;99791.56;4303342;33;32976;-93
2021/04/12 03:21:28;;;;;;;11.23;6.45;;;;;;;6.47;62.33;99792.09;4323847;33;35591;-93
2021/04/12 03:24:34;;;;;;;9.70;6.07;;;;;;;6.35;63.26;99782.63;4328410;33;34659;-92
2021/04/12 03:27:31;;;;;;;12.18;6.22;;;;;;;6.36;62.87;99790.53;4293448;33;34346;-92
2021/04/12 03:30:20;;;;;;;12.02;6.72;;;;;;;6.24;63.14;99797.13;4304894;33;34515;-92
2021/04/12 03:33:15;;;;;;;9.27;5.97;;;;;;;5.51;65.55;99800.06;4283176;33;34339;-92
2021/04/12 03:36:18;;;;;;;13.48;7.03;;;;;;;6.01;63.77;99791.47;4300310;33;33680;-92
2021/04/12 03:39:08;;;;;;;13.32;6.45;;;;;;;6.18;63.49;99787.91;4331510;33;34684;-91
2021/04/12 03:41:50;;;;;;;7.87;5.60;;;;;;;6.12;63.51;99795.72;4296892;33;33080;-92
2021/04/12 03:44:44;;;;;;;16.48;7.57;;;;;;;6.65;61.03;99791.16;4296511;33;34649;-91
2021/04/12 03:47:41;;;;;;;12.02;6.75;;;;;;;6.04;63.70;99790.31;4343870;33;33409;-92
2021/04/12 03:50:58;;;;;;;8.88;6.25;;;;;;;6.62;61.85;99796.88;4315512;33;34441;-92
2021/04/12 03:53:56;;;;;;;8.65;5.57;;;;;;;6.36;62.98;99805.75;4304409;33;33131;-91
2021/04/12 03:56:51;;;;;;;16.33;7.47;;;;;;;5.82;64.67;99805.84;4317096;33;32269;-93
2021/04/12 03:59:57;;;;;;;14.35;7.57;;;;;;;5.89;64.58;99803.41;4282732;33;33588;-93
2021/04/12 04:02:31;;;;;;;12.18;6.78;;;;;;;6.13;64.04;99794.72;4311061;33;33751;-92
2021/04/12 04:05:19;;;;;;;9.98;6.62;;;;;;;6.17;63.65;99799.62;4316219;33;33858;-92
2021/04/12 04:07:57;;;;;;;12.77;6.75;;;;;;;6.59;61.83;99799.88;4316027;33;33925;-93
2021/04/12 04:11:34;;;;;;;11.75;6.75;;;;;;;6.00;63.45;99803.19;4299855;33;33918;-92
2021/04/12 04:14:10;;;;;;;12.10;7.40;;;;;;;5.57;65.33;99797.63;4308296;33;34960;-92
2021/04/12 04:17:19;;;;;;;9.02;6.15;;;;;;;5.95;64.56;99810.84;4303174;33;35447;-92
2021/04/12 04:20:22;;;;;;;12.63;6.22;;;;;;;6.58;62.10;99808.94;4328816;33;33688;-92
2021/04/12 04:23:05;;;;;;;11.85;6.95;;;;;;;6.42;62.47;99813.22;4293798;33;34700;-91
2021/04/12 04:26:02;;;;;;;11.40;7.03;;;;;;;6.49;62.46;99811.53;4286605;33;34438;-92
2021/04/12 04:29:26;;;;;;;10.50;6.18;;;;;;;6.50;62.85;99807.03;4318393;33;34276;-92
2021/04/12 04:32:11;;;;;;;11.82;6.62;;;;;;;6.81;61.62;99793.94;4280319;33;34461;-93
2021/04/12 04:35:19;;;;;;;12.90;7.93;;;;;;;6.48;63.24;99799.16;4349568;32;33015;-92
2021/04/12 04:38:19;;;;;;;11.75;6.78;;;;;;;6.45;63.75;99794.09;4347411;33;32815;-91
2021/04/12 04:41:15;;;;;;;16.25;7.82;;;;;;;6.74;62.84;99806.31;4351764;32;33138;-92
2021/04/12 04:44:10;;;;;;;10.68;6.15;;;;;;;6.83;62.89;99812.56;4346483;32;34201;-92
2021/04/12 04:47:12;;;;;;;19.33;7.05;;;;;;;7.18;62.19;99816.88;4346662;32;34823;-92
2021/04/12 04:50:19;;;;;;;11.65;6.85;;;;;;;7.13;63.22;99813.84;4333510;33;32722;-95
2021/04/12 04:53:03;;;;;;;12.48;6.78;;;;;;;6.92;64.06;99816.13;4345436;33;34258;-94
2021/04/12 04:56:15;;;;;;;13.38;7.30;;;;;;;7.35;63.18;99823.16;4322517;33;34627;-94
2021/04/12 04:59:34;;;;;;;13.57;7.90;;;;;;;7.75;61.95;99818.00;4283167;33;33904;-92
2021/04/12 05:02:26;;;;;;;10.65;7.32;;;;;;;7.94;62.22;99827.59;4302736;33;32770;-91
2021/04/12 05:05:33;;;;;;;15.50;7.62;;;;;;;7.52;64.29;99824.03;4290683;33;32899;-95
2021/04/12 05:08:39;;;;;;;11.88;7.47;;;;;;;7.97;63.48;99826.41;4301862;33;32989;-92
2021/04/12 05:12:04;;;;;;;13.02;7.20;;;;;;;7.80;64.91;99837.19;4278296;33;35680;-92
2021/04/12 05:14:57;;;;;;;14.27;7.03;;;;;;;8.71;62.19;99837.94;4313343;33;34571;-92
2021/04/12 05:17:38;;;;;;;10.35;7.15;;;;;;;8.95;61.87;99839.72;4303000;33;33484;-90
2021/04/12 05:20:27;;;;;;;11.80;7.82;;;;;;;8.72;63.00;99842.31;4331983;33;33109;-91
2021/04/12 05:23:31;;;;;;;12.05;7.37;;;;;;;9.15;61.79;99831.22;4308060;33;33157;-91
2021/04/12 05:26:18;;;;;;;12.85;7.57;;;;;;;9.26;61.50;99835.38;4318467;33;34703;-91
2021/04/12 05:28:55;;;;;;;14.15;7.75;;;;;;;9.46;61.00;99827.66;4318647;33;32876;-95
2021/04/12 05:31:52;;;;;;;11.90;7.90;;;;;;;8.97;62.56;99835.00;4296558;33;32510;-93
2021/04/12 05:35:07;;;;;;;12.40;7.70;;;;;;;9.48;61.50;99831.03;4302142;33;32693;-93
2021/04/12 05:38:07;;;;;;;17.62;8.88;;;;;;;9.31;62.90;99819.47;4312410;33;32940;-93
2021/04/12 05:41:44;;;;;;;16.30;8.23;;;;;;;9.04;64.45;99831.59;4351936;32;32570;-94
2021/04/12 05:44:30;;;;;;;14.87;9.10;;;;;;;9.05;64.69;99817.09;4339075;32;34341;-93
2021/04/12 05:47:17;;;;;;;15.90;9.63;;;;;;;9.36;63.50;99828.72;4361464;32;33279;-93
2021/04/12 05:49:56;;;;;;;20.05;9.90;;;;;;;9.79;62.74;99824.72;4341228;32;34156;-92
2021/04/12 05:52:45;;;;;;;18.27;9.60;;;;;;;10.91;59.89;99826.72;4342688;32;33429;-93
2021/04/12 05:56:00;;;;;;;16.67;9.30;;;;;;;10.52;59.35;99817.03;4355875;32;34151;-93
2021/04/12 05:59:54;;;;;;;20.15;9.57;;;;;;;11.31;58.89;99825.34;4332773;32;35352;-93
2021/04/12 06:06:52;;;;;;;11.98;6.57;;;;;;;11.66;53.53;99816.56;4325543;33;33031;-93
2021/04/12 06:09:47;;;;;;;14.77;7.30;;;;;;;12.49;51.43;99818.75;4325124;32;34861;-93
2021/04/12 06:12:37;;;;;;;14.13;7.20;;;;;;;12.89;51.93;99824.44;4362074;32;33909;-93
2021/04/12 06:15:37;;;;;;;18.92;7.75;;;;;;;12.89;51.09;99808.16;4335804;33;34422;-94
2021/04/12 06:18:42;;;;;;;14.65;6.97;;;;;;;12.89;51.18;99809.00;4360186;32;33780;-93
2021/04/12 06:21:59;;;;;;;12.48;7.28;;;;;;;13.56;49.19;99806.56;4299913;33;35014;-94
2021/04/12 06:25:05;;;;;;;24.35;7.10;;;;;;;13.12;50.09;99802.41;4318819;33;34559;-93
2021/04/12 06:27:43;;;;;;;20.90;7.15;;;;;;;13.36;48.80;99797.53;4305862;33;32694;-93
2021/04/12 06:30:24;;;;;;;14.73;8.05;;;;;;;13.78;48.98;99795.50;4325078;33;36306;-94
2021/04/12 06:33:52;;;;;;;13.18;8.05;;;;;;;13.91;49.23;99806.38;4328537;33;32865;-94
2021/04/12 06:36:59;;;;;;;12.80;6.70;;;;;;;13.94;48.88;99797.00;4314989;33;33901;-96
2021/04/12 06:39:37;;;;;;;9.77;5.93;;;;;;;13.17;48.60;99816.22;4295442;33;33015;-93
2021/04/12 06:42:26;;;;;;;12.80;6.72;;;;;;;13.52;48.88;99812.59;4328618;33;33274;-94
2021/04/12 06:45:20;;;;;;;15.18;6.97;;;;;;;14.32;46.57;99807.22;4310441;33;33067;-94
2021/04/12 06:48:28;;;;;;;15.75;6.60;;;;;;;14.30;46.40;99812.88;4328945;33;33415;-94
2021/04/12 06:51:26;;;;;;;12.00;6.72;;;;;;;14.19;47.08;99807.22;4316042;33;34543;-93
2021/04/12 06:54:25;;;;;;;15.32;6.82;;;;;;;14.68;45.96;99807.84;4322024;33;33215;-94
2021/04/12 06:57:04;;;;;;;16.08;6.57;;;;;;;15.24;45.44;99815.41;4319188;33;32617;-94
2021/04/12 07:00:28;;;;;;;16.62;6.45;;;;;;;15.07;45.55;99804.16;4319678;33;35411;-92
2021/04/12 07:03:22;;;;;;;14.05;7.20;;;;;;;15.49;43.77;99803.75;4320918;33;34177;-94
2021/04/12 07:06:36;;;;;;;12.20;7.10;;;;;;;14.95;44.69;99809.41;4319280;33;33979;-92
2021/04/12 07:09:37;;;;;;;16.02;7.75;;;;;;;15.06;45.09;99807.09;4332386;33;33799;-93
2021/04/12 07:12:13;;;;;;;17.83;7.28;;;;;;;15.21;45.22;99804.94;4321144;33;34534;-93
2021/04/12 07:15:19;;;;;;;14.68;6.95;;;;;;;15.43;44.55;99807.34;4331619;33;33899;-93
2021/04/12 07:18:18;;;;;;;14.07;6.10;;;;;;;16.13;43.35;99807.31;4320343;33;33945;-92
2021/04/12 07:21:11;;;;;;;11.15;6.05;;;;;;;15.06;45.21;99823.41;4328121;33;34569;-92
2021/04/12 07:24:30;;;;;;;15.82;5.57;;;;;;;15.44;44.85;99814.47;4335480;33;34228;-93
2021/04/12 07:27:40;;;;;;;12.02;6.32;;;;;;;16.10;43.90;99810.50;4359306;32;34346;-92
2021/04/12 07:30:36;;;;;;;10.40;4.82;;;;;;;15.74;44.37;99798.34;4346087;33;34858;-93
2021/04/12 07:33:42;;;;;;;11.65;4.57;;;;;;;16.90;41.52;99789.78;4338448;33;33241;-93
2021/04/12 07:37:10;;;;;;;4.32;2.47;;;;;;;16.53;42.95;99784.31;4329879;32;33673;-93
2021/04/12 07:40:21;;;;;;;6.78;2.72;;;;;;;16.48;42.84;99798.62;4346044;32;32490;-91
2021/04/12 07:43:33;;;;;;;8.50;2.62;;;;;;;16.79;42.10;99798.72;4335200;33;34267;-92
2021/04/12 07:46:30;;;;;;;11.27;3.12;;;;;;;16.97;41.38;99793.28;4335752;33;35084;-96
2021/04/12 07:49:45;;;;;;;5.78;2.80;;;;;;;16.78;41.58;99795.16;4350771;32;34375;-94
2021/04/12 07:53:18;;;;;;;6.50;2.80;;;;;;;17.11;42.11;99797.53;4324337;33;34446;-95
2021/04/12 07:56:30;;;;;;;5.90;3.15;;;;;;;17.86;41.17;99800.06;4300111;33;33378;-95
2021/04/12 07:59:12;;;;;;;7.40;2.25;;;;;;;17.22;41.09;99803.28;4288920;33;35867;-95
2021/04/12 08:02:04;;;;;;;12.75;3.35;;;;;;;17.44;41.08;99806.34;4289958;33;36716;-91
2021/04/12 08:05:06;;;;;;;6.75;2.60;;;;;;;17.53;40.95;99804.13;4308547;33;33517;-94
2021/04/12 08:08:27;;;;;;;10.18;2.62;;;;;;;17.23;41.50;99816.72;4324596;33;33302;-92
2021/04/12 08:11:42;;;;;;;4.70;2.30;;;;;;;18.01;40.07;99811.44;4317658;33;33722;-93
2021/04/12 08:14:39;;;;;;;4.70;2.45;;;;;;;17.71;40.52;99819.63;4311123;33;34355;-93
2021/04/12 08:17:51;;;;;;;4.82;2.67;;;;;;;17.64;40.29;99800.63;4339385;32;34523;-95
2021/04/12 08:20:34;;;;;;;5.12;2.45;;;;;;;17.51;40.33;99806.25;4345516;33;34210;-92
2021/04/12 08:24:11;;;;;;;7.82;2.60;;;;;;;17.18;41.81;99822.03;4333120;33;33304;-94
2021/04/12 08:27:25;;;;;;;6.57;2.45;;;;;;;17.60;41.43;99813.06;4338241;33;34718;-94
2021/04/12 08:30:16;;;;;;;8.82;2.92;;;;;;;17.49;42.02;99824.81;4335191;33;34349;-93
2021/04/12 08:33:40;;;;;;;7.00;2.45;;;;;;;17.93;40.67;99814.50;4335553;33;33681;-92
2021/04/12 08:36:51;;;;;;;7.15;2.15;;;;;;;18.45;40.43;99811.13;4316817;33;33891;-94
2021/04/12 08:39:55;;;;;;;8.82;2.28;;;;;;;18.49;38.81;99804.94;4320455;33;34440;-93
2021/04/12 08:43:05;;;;;;;6.57;2.55;;;;;;;18.51;38.04;99813.75;4307958;33;34548;-94
2021/04/12 08:46:04;;;;;;;11.95;3.12;;;;;;;18.08;39.73;99800.38;4319132;33;33997;-94
2021/04/12 08:49:24;;;;;;;7.55;2.33;;;;;;;18.97;37.88;99800.28;4332939;33;33285;-93
2021/04/12 08:52:30;;;;;;;5.28;2.35;;;;;;;19.23;38.29;99811.75;4317355;33;32346;-95
2021/04/12 08:55:46;;;;;;;6.25;2.20;;;;;;;19.32;37.65;99804.00;4321353;33;33999;-94
2021/04/12 08:58:59;;;;;;;6.75;2.70;;;;;;;18.19;39.06;99802.31;4319839;33;31903;-91
2021/04/12 09:01:59;;;;;;;5.57;2.60;;;;;;;18.63;38.59;99797.31;4332309;33;32927;-92
2021/04/12 09:05:01;;;;;;;6.25;2.30;;;;;;;19.05;37.84;99777.16;4320900;33;33714;-92
2021/04/12 09:08:22;;;;;;;5.97;2.65;;;;;;;19.71;36.86;99765.81;4319818;33;33710;-92
2021/04/12 09:11:17;;;;;;;5.47;2.10;;;;;;;19.49;36.92;99790.34;4332209;33;33555;-95
2021/04/12 09:14:29;;;;;;;5.95;2.08;;;;;;;19.21;37.93;99770.09;4323970;33;34716;-93
2021/04/12 09:17:30;;;;;;;5.85;2.28;;;;;;;19.84;37.56;99757.28;4307632;33;34882;-94
2021/04/12 09:20:18;;;;;;;14.57;2.28;;;;;;;20.28;36.31;99751.13;4319248;33;35383;-92
2021/04/12 09:23:16;;;;;;;6.60;1.80;;;;;;;20.18;35.90;99757.31;4332685;33;33634;-95
2021/04/12 09:26:18;;;;;;;3.10;2.05;;;;;;;20.13;37.34;99751.72;4352606;32;33369;-96
2021/04/12 09:29:08;;;;;;;5.12;1.67;;;;;;;20.34;36.60;99754.78;4321353;33;32790;-94
2021/04/12 09:32:23;;;;;;;6.53;1.77;;;;;;;20.71;36.60;99746.81;4337466;33;32979;-96
2021/04/12 09:35:34;;;;;;;4.95;1.77;;;;;;;20.72;36.79;99753.97;4337635;33;32461;-94
2021/04/12 09:38:24;;;;;;;4.65;1.75;;;;;;;21.08;36.43;99739.88;4302383;33;34666;-95
2021/04/12 09:41:28;;;;;;;5.82;1.58;;;;;;;20.49;37.47;99756.91;4296499;33;32915;-95
2021/04/12 09:44:27;;;;;;;6.57;2.12;;;;;;;21.12;37.10;99746.50;4308402;33;33779;-96
2021/04/12 09:47:46;;;;;;;8.93;1.90;;;;;;;21.54;36.23;99737.62;4341440;33;33072;-94
2021/04/12 09:50:40;;;;;;;6.30;1.70;;;;;;;21.11;36.32;99737.44;4318372;33;34471;-96
2021/04/12 09:53:44;;;;;;;7.97;1.50;;;;;;;21.86;36.05;99728.56;4288279;33;32857;-93
2021/04/12 09:56:23;;;;;;;6.25;1.77;;;;;;;22.06;35.23;99722.38;4293017;33;32858;-96
2021/04/12 09:59:53;;;;;;;6.90;2.12;;;;;;;22.28;34.79;99732.47;4309832;33;32798;-96
2021/04/12 10:02:42;;;;;;;9.23;1.62;;;;;;;22.09;34.65;99723.78;4315778;33;34738;-93
2021/04/12 10:05:57;;;;;;;5.32;1.77;;;;;;;22.08;35.68;99716.63;4299270;33;558934;-96
2021/04/12 10:08:44;;;;;;;3.12;1.20;;;;;;;22.31;34.55;99709.91;4263999;33;32253;-92
2021/04/12 10:11:52;;;;;;;3.62;1.50;;;;;;;22.91;33.93;99714.06;4295125;33;33120;-96
2021/04/12 10:14:38;;;;;;;4.78;1.65;;;;;;;23.58;33.61;99705.16;4294000;33;32955;-95
2021/04/12 10:17:45;;;;;;;6.32;1.75;;;;;;;23.12;33.72;99707.84;4283041;33;33920;-95
2021/04/12 10:21:07;;;;;;;5.37;1.60;;;;;;;23.25;32.67;99697.13;4293003;33;33996;-94
2021/04/12 10:24:23;;;;;;;8.15;2.50;;;;;;;24.66;31.28;99699.53;4294958;33;34829;-96
2021/04/12 10:27:05;;;;;;;6.28;1.33;;;;;;;23.72;31.93;99695.22;4310480;33;34549;-95
2021/04/12 10:30:22;;;;;;;4.10;1.45;;;;;;;23.12;33.29;99691.31;4299390;33;34373;-94
2021/04/12 10:34:10;;;;;;;5.23;1.90;;;;;;;23.78;32.18;99685.84;4239900;33;33704;-95
2021/04/12 10:37:28;;;;;;;2.85;1.33;;;;;;;24.24;32.01;99684.19;4270679;33;32773;-96
2021/04/12 10:40:31;;;;;;;6.47;1.10;;;;;;;23.64;32.70;99687.50;4279701;33;32991;-93
2021/04/12 10:43:25;;;;;;;8.00;1.40;;;;;;;24.36;31.03;99673.66;4254051;33;34269;-94
2021/04/12 10:46:22;;;;;;;6.03;1.40;;;;;;;23.80;32.41;99685.56;4247197;33;33395;-94
2021/04/12 10:49:20;;;;;;;2.55;0.88;;;;;;;23.50;34.10;99678.12;4272149;33;33112;-93
2021/04/12 10:52:52;;;;;;;5.78;1.42;;;;;;;25.01;31.18;99678.38;4295984;33;35483;-96
2021/04/12 10:56:37;;;;;;;5.37;1.27;;;;;;;24.37;31.65;99679.97;4325823;33;33033;-96
2021/04/12 11:00:28;;;;;;;5.10;1.53;;;;;;;24.74;31.02;99676.03;4356796;32;20512;-96
2021/04/12 11:03:47;;;;;;;0.90;0.60;;;;;;;24.26;31.75;99674.47;4285044;33;32647;-96
2021/04/12 11:06:41;;;;;;;3.67;1.15;;;;;;;23.24;33.30;99678.91;4295896;33;34173;-96
2021/04/12 11:09:44;;;;;;;4.75;1.02;;;;;;;25.10;30.75;99673.87;4286032;33;32817;-96
2021/04/12 11:13:10;;;;;;;3.85;1.25;;;;;;;24.87;31.40;99669.06;4293645;33;33883;-96
2021/04/12 11:16:42;;;;;;;3.80;1.15;;;;;;;25.30;30.47;99653.62;4247828;33;32412;-96
2021/04/12 11:28:40;;;;;;;4.07;1.40;;;;;;;23.91;31.76;99658.84;1198717;28;20403;-94
2021/04/12 11:32:02;;;;;;;6.85;1.70;;;;;;;23.35;32.96;99656.88;4223696;33;30039;-95
2021/04/12 11:35:24;;;;;;;7.03;1.87;;;;;;;23.45;32.63;99662.41;4303649;33;20069;-96
2021/04/12 11:38:25;;;;;;;2.92;1.33;;;;;;;24.51;31.29;99658.97;4310419;33;33268;-93
2021/04/12 11:44:36;;;;;;;2.95;1.58;;;;;;;25.81;29.05;99637.69;4332245;33;33110;-92
2021/04/12 11:48:00;;;;;;;3.92;1.80;;;;;;;25.70;28.80;99650.78;4333026;33;33076;-92
2021/04/12 11:51:14;;;;;;;4.85;1.90;;;;;;;25.56;28.74;99642.34;4324541;33;35230;-94
2021/04/12 11:54:06;;;;;;;6.82;2.03;;;;;;;25.67;28.82;99643.06;4354591;32;35297;-93
2021/04/12 11:58:07;;;;;;;2.62;1.25;;;;;;;25.70;28.69;99643.34;4329554;32;35224;-96
2021/04/12 12:01:26;;;;;;;3.33;1.48;;;;;;;25.19;29.23;99635.41;4342331;33;33357;-95
2021/04/12 12:05:08;;;;;;;10.45;2.00;;;;;;;23.96;31.09;99639.50;4361452;32;33835;-96
2021/04/12 12:08:44;;;;;;;6.03;1.62;;;;;;;23.59;31.90;99624.91;4347648;32;20111;-96
2021/04/12 12:12:15;;;;;;;5.90;2.12;;;;;;;23.82;31.12;99647.50;4289562;33;33840;-96
2021/04/12 12:15:27;;;;;;;6.03;1.45;;;;;;;24.17;30.62;99637.53;4292284;33;33997;-96
2021/04/12 12:19:36;;;;;;;7.50;1.42;;;;;;;23.95;30.92;99629.56;1458996;27;20388;-96
2021/04/12 12:23:32;;;;;;;;;;;;;;;;;;;;;
2021/04/12 12:27:27;;;;;;;7.22;1.90;;;;;;;22.97;31.73;99626.75;4184722;34;32559;-96
2021/04/12 12:31:05;;;;;;;3.37;1.92;;;;;;;22.93;31.18;99620.13;4198764;34;33922;-96
2021/04/12 12:35:16;;;;;;;6.05;1.62;;;;;;;23.63;30.83;99625.97;4219866;33;35281;-96
2021/04/12 12:38:14;;;;;;;4.85;1.83;;;;;;;24.15;29.74;99632.28;4276842;28;34154;-96
2021/04/12 12:41:39;;;;;;;6.40;1.95;;;;;;;23.51;30.43;99624.62;4196320;33;31092;-88
2021/04/12 12:44:16;;;;;;;5.18;1.23;;;;;;;22.60;31.50;99618.66;4219036;33;33772;-83
2021/04/12 12:47:32;;;;;;;10.40;1.70;;;;;;;22.58;31.82;99607.91;4228307;33;33150;-96
2021/04/12 12:51:22;;;;;;;5.40;1.67;;;;;;;22.50;31.64;99613.94;4240259;28;33777;31
2021/04/12 12:55:07;;;;;;;4.35;1.55;;;;;;;22.90;31.30;99607.72;4424459;28;34187;-96
2021/04/12 12:57:44;;;;;;;7.15;1.70;;;;;;;22.51;32.31;99604.56;4660270;28;33743;-96
2021/04/12 13:01:10;;;;;;;8.32;1.62;;;;;;;22.63;32.22;99607.91;4229886;28;33248;-96
2021/04/12 13:04:51;;;;;;;;;;;;;;;;;;;;;
2021/04/12 13:15:22;;;;;;;7.37;1.25;;;;;;;23.22;31.52;99592.91;4455677;28;19970;-96
2021/04/12 13:22:53;;;;;;;5.62;1.20;;;;;;;24.12;29.22;99596.13;4563518;28;20105;-95
2021/04/12 13:26:43;;;;;;;2.55;1.05;;;;;;;24.44;28.69;99594.91;4369788;28;20160;-96
2021/04/12 13:29:48;;;;;;;3.10;0.90;;;;;;;23.12;30.10;99594.84;4293502;33;34168;-92
2021/04/12 13:33:06;;;;;;;4.97;1.90;;;;;;;22.75;31.32;99582.87;4266117;33;36342;-92
2021/04/12 13:36:19;;;;;;;6.37;1.33;;;;;;;22.85;30.66;99584.84;4277318;33;32986;-96
2021/04/12 13:39:43;;;;;;;5.53;1.55;;;;;;;23.69;29.69;99585.44;4270765;33;32452;-87
2021/04/12 13:47:11;;;;;;;11.55;1.75;;;;;;;24.21;28.23;99585.34;4210988;33;35455;-93
2021/04/12 13:53:55;;;;;;;7.90;1.55;;;;;;;24.18;28.35;99596.94;4191964;34;35995;-86
2021/04/12 13:57:10;;;;;;;7.05;1.42;;;;;;;22.86;30.48;99595.59;4190316;34;33752;-94
2021/04/12 14:00:25;;;;;;;5.55;1.65;;;;;;;22.51;31.36;99590.81;4190214;34;34245;-92
2021/04/12 14:03:22;;;;;;;8.80;1.75;;;;;;;21.90;31.86;99605.91;4191454;33;33262;-84
2021/04/12 14:13:48;;;;;;;2.10;1.40;;;;;;;21.11;33.70;99594.56;4250245;33;34365;-96
2021/04/12 14:16:25;;;;;;;5.18;1.52;;;;;;;20.70;34.42;99593.31;4233609;33;32988;-84
2021/04/12 14:19:33;;;;;;;7.28;2.15;;;;;;;20.70;35.07;99601.56;4246745;33;34652;-85
2021/04/12 14:22:31;;;;;;;8.60;1.60;;;;;;;20.15;35.94;99598.69;4220883;34;34536;-96
2021/04/12 14:25:42;;;;;;;6.03;1.70;;;;;;;20.10;35.93;99596.72;4217511;34;33350;-96
2021/04/12 14:28:45;;;;;;;9.10;2.28;;;;;;;19.89;37.06;99601.03;4226883;33;34643;-96
2021/04/12 14:31:37;;;;;;;4.80;2.10;;;;;;;19.76;37.14;99604.16;4216673;33;33634;-86
2021/04/12 14:35:13;;;;;;;8.32;2.17;;;;;;;19.92;37.55;99607.94;4264574;33;33602;-96
2021/04/12 14:38:46;;;;;;;11.25;2.22;;;;;;;19.62;37.17;99600.91;4276707;33;33458;-92
2021/04/12 14:41:40;;;;;;;12.32;3.37;;;;;;;19.84;36.51;99592.75;4298321;33;33736;-91
2021/04/12 14:45:28;;;;;;;9.27;3.20;;;;;;;20.23;35.74;99597.41;4274518;33;35399;-96
2021/04/12 14:48:16;;;;;;;7.43;2.20;;;;;;;19.39;37.33;99602.75;4294313;33;33536;-86
2021/04/12 14:50:59;;;;;;;10.13;2.50;;;;;;;19.76;36.44;99599.47;4278727;33;33491;-87
2021/04/12 14:53:57;;;;;;;8.48;2.65;;;;;;;19.81;36.59;99601.50;4273519;33;33213;-86
2021/04/12 14:56:46;;;;;;;13.27;2.33;;;;;;;19.97;35.79;99601.72;4300266;33;34589;-96
2021/04/12 15:00:09;;;;;;;12.77;2.53;;;;;;;19.45;36.70;99606.41;4285682;33;35160;-95
2021/04/12 15:03:09;;;;;;;12.45;3.45;;;;;;;19.54;36.89;99604.91;4275283;33;33549;-87
2021/04/12 15:06:09;;;;;;;9.57;2.15;;;;;;;19.52;36.65;99604.31;4289357;33;32968;-94
2021/04/12 15:09:15;;;;;;;10.45;2.20;;;;;;;19.55;36.64;99603.81;4274494;33;33362;-96
2021/04/12 15:12:15;;;;;;;11.30;2.50;;;;;;;19.66;36.85;99604.00;4285473;33;33599;-94